Time;durP1;ratioP1;P1;durP2;ratioP2;P2;SDS_P1;SDS_P2;PMS_P1;PMS_P2;Temp;Humidity;BMP_temperature;BMP_pressure;BME280_temperature;BME280_humidity;BME280_pressure;Samples;Min_cycle;Max_cycle;Signal;HPM_P1;HPM_P2
2021/12/09 02:28:39;;;;;;;2.30;2.20;;;;;;;1.93;100.00;100198.47;6122576;23;20024;31
2021/12/09 02:31:04;;;;;;;2.10;2.00;;;;;;;1.94;100.00;100195.81;4895460;29;20048;-84
2021/12/09 02:33:32;;;;;;;2.17;2.08;;;;;;;1.91;100.00;100195.88;4897908;29;20097;-84
2021/12/09 02:35:57;;;;;;;2.90;2.70;;;;;;;1.89;100.00;100197.66;4897664;29;20103;-83
2021/12/09 02:38:23;;;;;;;2.15;2.05;;;;;;;1.88;100.00;100193.31;4897249;29;20029;-83
2021/12/09 02:40:50;;;;;;;2.10;2.00;;;;;;;1.90;100.00;100194.16;4898158;29;20029;-83
2021/12/09 02:43:22;;;;;;;2.05;1.95;;;;;;;1.88;100.00;100193.31;4897964;29;20096;-83
2021/12/09 02:45:52;;;;;;;2.22;2.13;;;;;;;1.89;100.00;100195.03;4898156;29;20039;-83
2021/12/09 02:48:18;;;;;;;2.00;1.90;;;;;;;1.89;100.00;100200.28;4898276;29;20032;-83
2021/12/09 02:50:43;;;;;;;2.30;2.20;;;;;;;1.91;100.00;100195.88;4897754;29;20025;-84
2021/12/09 02:53:09;;;;;;;2.20;2.10;;;;;;;1.87;100.00;100199.47;4899950;29;20531;-84
2021/12/09 02:55:34;;;;;;;2.85;2.65;;;;;;;1.84;100.00;100203.88;4899588;29;20473;-84
2021/12/09 02:58:02;;;;;;;2.75;2.53;;;;;;;1.87;100.00;100195.97;4900374;29;20040;-82
2021/12/09 03:00:29;;;;;;;2.28;2.17;;;;;;;1.84;100.00;100198.66;4901870;29;20441;-84
2021/12/09 03:02:57;;;;;;;2.65;2.55;;;;;;;1.80;100.00;100207.47;4901992;29;20029;-83
2021/12/09 03:05:23;;;;;;;2.17;2.08;;;;;;;1.80;100.00;100192.59;4900214;29;20025;-83
2021/12/09 03:07:49;;;;;;;2.00;1.90;;;;;;;1.76;100.00;100197.91;4901774;29;20036;-84
2021/12/09 03:10:23;;;;;;;2.33;2.22;;;;;;;1.73;100.00;100206.69;4901964;29;20028;-84
2021/12/09 03:12:54;;;;;;;2.65;2.55;;;;;;;1.76;100.00;100196.19;4902337;29;20039;-83
2021/12/09 03:15:23;;;;;;;2.58;2.47;;;;;;;1.73;100.00;100204.09;4884582;29;20029;-84
2021/12/09 03:17:49;;;;;;;2.65;2.45;;;;;;;1.72;100.00;100204.09;4882797;29;20029;-83
2021/12/09 03:20:18;;;;;;;2.45;2.35;;;;;;;1.70;100.00;100204.13;4882452;29;20040;-84
2021/12/09 03:22:46;;;;;;;2.20;2.10;;;;;;;1.79;100.00;100200.47;4883688;29;20426;-84
2021/12/09 03:25:15;;;;;;;2.50;2.40;;;;;;;1.80;100.00;100208.31;4884213;29;20033;-84
2021/12/09 03:27:41;;;;;;;2.65;2.55;;;;;;;1.75;100.00;100204.91;4882976;29;20032;-83
2021/12/09 03:30:09;;;;;;;2.15;2.05;;;;;;;1.70;100.00;100195.41;4910426;29;20072;-82
2021/12/09 03:32:35;;;;;;;2.17;2.08;;;;;;;1.65;100.00;100208.56;4938110;29;20047;-82
2021/12/09 03:35:00;;;;;;;2.65;2.50;;;;;;;1.76;100.00;100211.00;4939389;29;20043;-83
2021/12/09 03:37:27;;;;;;;3.03;2.83;;;;;;;1.71;100.00;100213.72;4935566;29;20024;-84
2021/12/09 03:40:22;;;;;;;2.85;2.70;;;;;;;1.75;100.00;100210.13;4925968;29;20031;-83
2021/12/09 03:42:47;;;;;;;2.78;2.58;;;;;;;1.77;100.00;100213.59;4915342;29;20452;-83
2021/12/09 03:45:21;;;;;;;2.33;2.22;;;;;;;1.87;100.00;100209.94;4921003;29;20076;-83
2021/12/09 03:47:47;;;;;;;2.28;2.17;;;;;;;1.79;100.00;100219.69;4918771;29;20028;-83
2021/12/09 03:50:13;;;;;;;2.60;2.50;;;;;;;1.79;100.00;100221.41;4920754;29;20049;-83
2021/12/09 03:52:39;;;;;;;2.42;2.33;;;;;;;1.74;100.00;100213.66;4919366;29;20024;-83
2021/12/09 03:55:06;;;;;;;3.25;3.05;;;;;;;1.77;100.00;100218.84;4989780;23;20052;-82
2021/12/09 03:57:32;;;;;;;2.40;2.30;;;;;;;1.79;100.00;100214.44;4931730;29;20024;-82
2021/12/09 03:59:57;;;;;;;2.80;2.70;;;;;;;1.75;100.00;100217.97;4919874;29;20038;-83
2021/12/09 04:02:23;;;;;;;2.40;2.30;;;;;;;1.78;100.00;100228.41;4918338;29;20028;-82
2021/12/09 04:04:48;;;;;;;2.78;2.67;;;;;;;1.77;100.00;100228.44;4918520;29;20028;-83
2021/12/09 04:07:14;;;;;;;2.20;2.10;;;;;;;1.71;100.00;100220.69;4918642;29;20095;-82
2021/12/09 04:09:39;;;;;;;2.30;2.20;;;;;;;1.72;100.00;100228.50;4917799;29;20035;-82
2021/12/09 04:12:05;;;;;;;2.83;2.63;;;;;;;1.72;100.00;100225.06;4918448;29;20111;-82
2021/12/09 04:14:32;;;;;;;2.80;2.63;;;;;;;1.78;100.00;100230.19;4918152;29;20066;-83
2021/12/09 04:16:58;;;;;;;2.75;2.65;;;;;;;1.79;100.00;100231.88;4918203;29;20052;-83
2021/12/09 04:19:23;;;;;;;2.72;2.50;;;;;;;1.72;100.00;100233.75;4918987;29;20036;-83
2021/12/09 04:21:49;;;;;;;2.72;2.63;;;;;;;1.77;100.00;100234.53;4924497;29;20047;-83
2021/12/09 04:24:15;;;;;;;2.38;2.28;;;;;;;1.87;100.00;100230.00;4906568;29;20032;-83
2021/12/09 04:26:43;;;;;;;2.40;2.30;;;;;;;1.80;100.00;100225.78;4918836;29;20032;-84
2021/12/09 04:29:10;;;;;;;2.72;2.63;;;;;;;1.80;100.00;100229.25;4918642;29;20068;-83
2021/12/09 04:31:36;;;;;;;2.45;2.35;;;;;;;1.77;100.00;100229.31;4918927;29;20032;-84
2021/12/09 04:34:02;;;;;;;2.55;2.45;;;;;;;1.84;100.00;100230.06;4924844;29;20035;-83
2021/12/09 04:36:27;;;;;;;2.45;2.35;;;;;;;1.78;100.00;100217.94;4926623;29;20473;-82
2021/12/09 04:38:54;;;;;;;2.55;2.45;;;;;;;1.82;100.00;100222.25;4925758;29;20044;-83
2021/12/09 04:41:21;;;;;;;2.30;2.20;;;;;;;1.79;100.00;100218.81;4919386;29;20079;-83
2021/12/09 04:43:46;;;;;;;2.65;2.55;;;;;;;1.78;100.00;100214.47;4917942;29;20078;-82
2021/12/09 04:46:14;;;;;;;2.72;2.63;;;;;;;1.73;100.00;100230.25;4918444;29;20123;-82
2021/12/09 04:48:39;;;;;;;2.58;2.45;;;;;;;1.71;100.00;100224.19;4918649;29;20028;-82
2021/12/09 04:51:05;;;;;;;2.75;2.65;;;;;;;1.76;100.00;100232.81;4932277;29;20035;-82
2021/12/09 04:53:32;;;;;;;2.50;2.40;;;;;;;1.77;100.00;100236.28;4917631;29;20031;-82
2021/12/09 04:55:58;;;;;;;2.45;2.35;;;;;;;1.79;100.00;100240.63;4932819;29;20043;-82
2021/12/09 04:58:25;;;;;;;2.42;2.33;;;;;;;1.82;100.00;100244.94;4937375;29;20038;-83
2021/12/09 05:00:53;;;;;;;2.35;2.25;;;;;;;1.78;100.00;100249.34;4940751;29;20028;-83
2021/12/09 05:03:20;;;;;;;2.88;2.70;;;;;;;1.78;100.00;100243.25;4954327;29;20083;-83
2021/12/09 05:05:48;;;;;;;2.65;2.55;;;;;;;1.86;100.00;100247.47;4956051;29;20115;-82
2021/12/09 05:08:16;;;;;;;3.58;3.38;;;;;;;1.81;100.00;100253.69;4947055;29;20047;-83
2021/12/09 05:11:14;;;;;;;3.28;3.08;;;;;;;1.83;100.00;100255.38;4924229;29;20168;-83
2021/12/09 05:13:35;;;;;;;2.40;2.30;;;;;;;1.73;100.00;100250.31;4918256;29;20043;-83
2021/12/09 05:16:03;;;;;;;2.40;2.30;;;;;;;1.77;100.00;100265.06;4918811;29;20028;-83
2021/12/09 05:21:34;;;;;;;2.63;2.53;;;;;;;1.74;100.00;100263.38;4936840;29;20471;-83
2021/12/09 05:24:13;;;;;;;3.40;3.20;;;;;;;1.74;100.00;100254.66;4937192;29;20024;-83
2021/12/09 05:26:45;;;;;;;2.67;2.55;;;;;;;1.73;100.00;100259.06;4936071;29;20024;-83
2021/12/09 05:29:12;;;;;;;2.65;2.55;;;;;;;1.76;100.00;100258.13;4953807;29;20046;-82
2021/12/09 05:34:22;;;;;;;3.88;3.58;;;;;;;1.89;100.00;100254.41;4955127;29;20196;-85
2021/12/09 05:36:47;;;;;;;2.40;2.30;;;;;;;1.94;100.00;100250.81;4955259;29;20391;-83
2021/12/09 05:39:14;;;;;;;2.88;2.70;;;;;;;1.89;100.00;100247.41;4954165;29;20031;-82
2021/12/09 05:41:40;;;;;;;2.47;2.38;;;;;;;1.85;100.00;100247.50;4955427;29;20099;-83
2021/12/09 05:44:06;;;;;;;2.20;2.10;;;;;;;1.84;100.00;100251.88;4955627;29;20020;-83
2021/12/09 05:46:37;;;;;;;3.50;3.30;;;;;;;1.76;100.00;100255.50;4954235;29;20439;-83
2021/12/09 05:49:04;;;;;;;2.40;2.30;;;;;;;1.76;100.00;100260.75;4955698;29;20027;-83
2021/12/09 05:51:30;;;;;;;2.67;2.58;;;;;;;1.78;100.00;100256.34;4938064;29;20118;-86
2021/12/09 05:53:56;;;;;;;3.25;3.05;;;;;;;1.74;100.00;100250.28;4950678;29;20799;-82
2021/12/09 05:56:22;;;;;;;8.10;4.00;;;;;;;1.72;100.00;100252.06;4936265;29;20035;-84
2021/12/09 05:58:48;;;;;;;2.65;2.55;;;;;;;1.68;100.00;100260.88;4936239;29;20031;-85
2021/12/09 06:01:14;;;;;;;2.35;2.25;;;;;;;1.61;100.00;100261.00;4943223;29;20043;-83
2021/12/09 06:03:39;;;;;;;2.70;2.60;;;;;;;1.65;100.00;100260.94;4944241;29;20031;-83
2021/12/09 06:06:05;;;;;;;4.90;2.72;;;;;;;1.67;100.00;100264.34;4936251;29;20063;-83
2021/12/09 06:08:30;;;;;;;2.58;2.47;;;;;;;1.59;100.00;100274.13;4935571;29;20032;-83
2021/12/09 06:10:56;;;;;;;2.83;2.70;;;;;;;1.67;100.00;100269.59;4935665;29;20032;-85
2021/12/09 06:13:26;;;;;;;5.28;3.67;;;;;;;1.72;100.00;100265.16;4936439;29;20074;-82
2021/12/09 06:15:51;;;;;;;2.67;2.58;;;;;;;1.68;100.00;100276.56;4927090;29;20082;-82
2021/12/09 06:18:17;;;;;;;2.90;2.75;;;;;;;1.67;100.00;100271.38;4935681;29;20052;-83
2021/12/09 06:20:42;;;;;;;2.35;2.25;;;;;;;1.70;100.00;100266.09;4935059;29;20087;-83
2021/12/09 06:23:07;;;;;;;2.60;2.50;;;;;;;1.64;100.00;100267.03;4917994;29;20032;-83
2021/12/09 06:25:33;;;;;;;2.72;2.63;;;;;;;1.62;100.00;100276.69;4916761;29;20119;-83
2021/12/09 06:28:00;;;;;;;2.50;2.40;;;;;;;1.58;100.00;100275.84;4924433;29;20091;-83
2021/12/09 06:30:26;;;;;;;2.60;2.50;;;;;;;1.57;100.00;100268.03;4942464;29;20031;-82
2021/12/09 06:32:53;;;;;;;3.13;2.92;;;;;;;1.56;100.00;100271.50;4960019;29;20070;-83
2021/12/09 06:35:19;;;;;;;2.90;2.70;;;;;;;1.52;100.00;100269.84;4951615;29;20063;-84
2021/12/09 06:37:46;;;;;;;2.85;2.72;;;;;;;1.58;100.00;100280.22;4945200;29;20028;-83
2021/12/09 06:40:18;;;;;;;2.83;2.70;;;;;;;1.57;100.00;100273.25;4941362;29;20043;-83
2021/12/09 06:42:47;;;;;;;2.90;2.70;;;;;;;1.62;100.00;100274.06;4939206;29;20040;-83
2021/12/09 06:45:14;;;;;;;2.90;2.70;;;;;;;1.62;100.00;100278.41;4939850;29;20032;-83
2021/12/09 06:47:40;;;;;;;3.03;2.85;;;;;;;1.62;100.00;100278.41;4940729;29;20055;-84
2021/12/09 06:50:07;;;;;;;2.70;2.58;;;;;;;1.75;100.00;100275.56;4938956;29;20089;-85
2021/12/09 06:52:33;;;;;;;2.53;2.42;;;;;;;1.69;100.00;100269.59;4939003;29;20031;-85
2021/12/09 06:54:58;;;;;;;3.45;3.25;;;;;;;1.72;100.00;100272.16;4938818;29;20070;-84
2021/12/09 06:57:23;;;;;;;3.85;3.55;;;;;;;1.77;100.00;100275.53;4938842;29;20498;-84
2021/12/09 06:59:48;;;;;;;2.63;2.53;;;;;;;1.83;100.00;100278.94;4939067;29;20483;-82
2021/12/09 07:02:14;;;;;;;2.97;2.83;;;;;;;1.83;100.00;100283.31;4938143;29;20409;-83
2021/12/09 07:04:39;;;;;;;2.40;2.30;;;;;;;1.85;100.00;100286.75;4939841;29;20379;-87
2021/12/09 07:07:05;;;;;;;3.55;3.22;;;;;;;1.84;100.00;100283.31;4937501;29;20469;-90
2021/12/09 07:09:31;;;;;;;2.53;2.42;;;;;;;1.80;100.00;100279.00;4938837;29;20056;-90
2021/12/09 07:11:57;;;;;;;2.53;2.42;;;;;;;1.82;100.00;100281.56;4945122;23;20514;-85
2021/12/09 17:37:18;;;;;;;2.05;1.95;;;;;;;4.93;100.00;100297.25;5950757;23;20026;-80
2021/12/09 17:39:43;;;;;;;2.13;2.03;;;;;;;4.93;100.00;100295.50;4916546;29;20040;-80
2021/12/09 17:42:09;;;;;;;2.35;2.25;;;;;;;4.94;100.00;100291.06;4917066;29;20039;-80
2021/12/09 17:44:35;;;;;;;2.25;2.15;;;;;;;4.98;100.00;100298.00;4916270;29;20036;-81
2021/12/09 17:47:06;;;;;;;1.90;1.80;;;;;;;4.95;100.00;100285.78;4916605;29;20036;-79
2021/12/09 17:49:34;;;;;;;1.83;1.73;;;;;;;4.83;100.00;100270.34;4916689;29;20039;-81
2021/12/09 17:52:19;;;;;;;1.85;1.75;;;;;;;4.79;100.00;100275.75;4912390;29;20025;-80
2021/12/09 17:54:45;;;;;;;2.30;2.20;;;;;;;4.80;100.00;100274.81;4896423;29;20029;-80
2021/12/09 17:57:10;;;;;;;1.73;1.63;;;;;;;4.77;100.00;100272.28;4905620;29;20068;-80
2021/12/09 17:59:36;;;;;;;2.13;2.03;;;;;;;4.65;100.00;100270.84;4899537;29;20413;-80
2021/12/09 18:02:04;;;;;;;1.98;1.88;;;;;;;4.68;100.00;100274.25;4896335;29;20048;-80
2021/12/09 18:04:30;;;;;;;1.67;1.58;;;;;;;4.73;100.00;100282.03;4896742;29;20052;-80
2021/12/09 18:06:55;;;;;;;2.65;2.50;;;;;;;4.81;100.00;100277.41;4896269;29;20466;-80
2021/12/09 18:09:21;;;;;;;2.45;2.35;;;;;;;4.77;100.00;100272.28;4909719;29;20028;-80
2021/12/09 18:11:47;;;;;;;1.92;1.83;;;;;;;4.77;100.00;100275.78;4915785;29;20020;-79
2021/12/09 18:14:13;;;;;;;2.55;1.98;;;;;;;4.82;100.00;100278.28;4916066;29;20107;-80
2021/12/09 18:16:43;;;;;;;1.75;1.65;;;;;;;4.78;100.00;100272.25;4916134;29;20025;-80
2021/12/09 18:19:09;;;;;;;1.88;1.77;;;;;;;4.76;100.00;100274.03;4915356;29;20032;-79
2021/12/09 18:21:40;;;;;;;2.33;2.22;;;;;;;4.80;100.00;100266.94;4917763;29;20166;-80
2021/12/09 18:24:06;;;;;;;2.50;1.88;;;;;;;4.69;100.00;100268.13;4915702;29;20055;-79
2021/12/09 18:26:32;;;;;;;1.83;1.73;;;;;;;4.79;100.00;100263.44;4914350;29;20028;-80
2021/12/09 18:28:58;;;;;;;2.25;2.15;;;;;;;4.70;100.00;100261.06;4918190;29;20051;-80
2021/12/09 18:31:24;;;;;;;1.98;1.85;;;;;;;4.72;100.00;100270.66;4918784;29;20031;-81
2021/12/09 18:33:52;;;;;;;1.58;1.48;;;;;;;4.76;100.00;100266.16;4918337;29;20379;-80
2021/12/09 18:39:04;;;;;;;1.60;1.50;;;;;;;4.70;100.00;100261.94;4944184;23;20123;-84
2021/12/09 18:41:29;;;;;;;1.70;1.60;;;;;;;4.65;100.00;100252.44;4936894;29;20157;-82
2021/12/09 18:43:57;;;;;;;2.40;2.20;;;;;;;4.61;100.00;100254.31;4919124;29;20126;-82
2021/12/09 18:46:54;;;;;;;1.75;1.65;;;;;;;4.52;100.00;100253.72;4938199;29;20020;-83
2021/12/09 18:49:25;;;;;;;2.15;2.05;;;;;;;4.43;100.00;100254.81;4924232;29;20514;-83
2021/12/09 18:52:00;;;;;;;2.22;2.13;;;;;;;4.42;100.00;100257.47;4932469;29;20028;-83
2021/12/09 18:54:29;;;;;;;2.80;2.60;;;;;;;4.30;100.00;100260.44;4948210;23;20044;-82
2021/12/09 18:56:57;;;;;;;2.10;2.00;;;;;;;4.37;100.00;100248.84;4929487;29;20469;-82
2021/12/09 18:59:29;;;;;;;2.33;2.22;;;;;;;4.14;100.00;100253.88;4928175;29;20119;-83
2021/12/09 19:02:04;;;;;;;1.90;1.80;;;;;;;4.12;100.00;100239.88;4924858;29;20115;-82
2021/12/09 19:04:36;;;;;;;2.33;2.22;;;;;;;4.12;100.00;100245.16;4928123;29;20035;-80
2021/12/09 19:07:07;;;;;;;2.20;2.10;;;;;;;4.04;100.00;100233.97;4932730;29;20038;-83
2021/12/09 19:09:35;;;;;;;2.28;2.08;;;;;;;4.00;100.00;100230.56;4930148;29;20032;-82
2021/12/09 19:12:02;;;;;;;2.35;2.22;;;;;;;4.02;100.00;100223.50;4932066;29;20107;-82
2021/12/09 19:14:27;;;;;;;2.13;2.03;;;;;;;3.98;100.00;100228.88;4938951;29;20035;-82
2021/12/09 19:17:04;;;;;;;1.90;1.80;;;;;;;3.99;100.00;100227.97;4938428;29;20031;-83
2021/12/09 19:19:33;;;;;;;2.42;2.22;;;;;;;3.93;100.00;100215.00;4938308;29;20034;-83
2021/12/09 19:21:59;;;;;;;2.13;2.03;;;;;;;3.89;100.00;100216.81;4937363;29;20051;-82
2021/12/09 19:24:26;;;;;;;1.98;1.88;;;;;;;3.85;100.00;100207.31;4930256;29;20035;-81
2021/12/09 19:26:55;;;;;;;2.47;2.28;;;;;;;3.85;100.00;100199.44;4934259;29;20432;-82
2021/12/09 19:29:25;;;;;;;2.33;2.22;;;;;;;3.87;100.00;100197.63;4930638;29;20494;-82
2021/12/09 19:32:00;;;;;;;2.33;2.22;;;;;;;3.73;100.00;100197.13;4934163;29;20032;-81
2021/12/09 19:34:25;;;;;;;3.75;3.33;;;;;;;3.62;100.00;100190.41;4925062;29;20396;-81
2021/12/09 19:36:51;;;;;;;3.45;3.25;;;;;;;3.67;100.00;100183.28;4929476;29;20028;-81
2021/12/09 19:39:20;;;;;;;2.10;2.00;;;;;;;3.70;100.00;100188.47;4923136;29;20114;-81
2021/12/09 19:41:49;;;;;;;2.47;2.27;;;;;;;3.61;100.00;100180.81;4925707;29;20096;-82
2021/12/09 19:44:20;;;;;;;2.85;2.65;;;;;;;3.54;100.00;100182.75;4925521;29;20027;-82
2021/12/09 19:46:46;;;;;;;2.10;2.00;;;;;;;3.54;100.00;100172.25;4930611;29;20494;-81
2021/12/09 19:49:24;;;;;;;3.80;3.50;;;;;;;3.49;100.00;100173.22;4924517;29;20111;-82
2021/12/09 19:52:04;;;;;;;2.00;1.90;;;;;;;3.45;100.00;100167.19;4922561;29;20091;-82
2021/12/09 19:54:34;;;;;;;1.95;1.85;;;;;;;3.46;100.00;100165.44;4920919;29;20088;-83
2021/12/09 19:56:59;;;;;;;;;;;;;;;3.38;100.00;100165.63;4928620;29;20024;-82
2021/12/09 19:59:28;;;;;;;2.10;2.00;;;;;;;3.35;100.00;100157.84;4924880;29;19967;-85
2021/12/09 20:01:54;;;;;;;2.70;2.50;;;;;;;3.36;100.00;100166.59;4924787;29;20036;-80
2021/12/09 20:04:21;;;;;;;2.67;2.15;;;;;;;3.42;100.00;100162.03;4925206;29;20075;-80
2021/12/09 20:06:48;;;;;;;2.10;2.00;;;;;;;3.36;100.00;100153.47;4930723;29;20028;-80
2021/12/09 20:09:14;;;;;;;2.20;2.10;;;;;;;3.39;100.00;100159.47;4925516;29;20027;-80
2021/12/09 20:11:39;;;;;;;1.60;1.50;;;;;;;3.31;100.00;100153.53;4924153;29;20035;-80
2021/12/09 20:14:04;;;;;;;1.88;1.77;;;;;;;3.32;100.00;100159.66;4927297;29;20146;-79
2021/12/09 20:16:30;;;;;;;1.92;1.83;;;;;;;3.31;100.00;100150.09;4926241;29;20480;-80
2021/12/09 20:18:56;;;;;;;2.45;2.35;;;;;;;3.29;100.00;100157.13;4924407;29;20028;-79
2021/12/09 20:21:22;;;;;;;1.83;1.73;;;;;;;3.36;100.00;100151.69;4925483;29;20480;-80
2021/12/09 20:23:50;;;;;;;2.33;2.22;;;;;;;3.31;100.00;100153.53;4925376;29;20020;-81
2021/12/09 20:26:17;;;;;;;2.55;2.35;;;;;;;3.32;100.00;100155.28;4929230;29;20030;-80
2021/12/09 20:28:43;;;;;;;2.28;2.17;;;;;;;3.37;100.00;100152.56;4916062;29;20055;-81
2021/12/09 20:31:12;;;;;;;2.85;2.65;;;;;;;3.33;100.00;100151.75;4936524;29;20047;-80
2021/12/09 20:33:49;;;;;;;1.90;1.80;;;;;;;3.41;100.00;100148.94;4934973;29;20032;-81
2021/12/09 20:36:15;;;;;;;1.98;1.88;;;;;;;3.36;100.00;100146.44;4935787;29;20027;-80
2021/12/09 20:38:41;;;;;;;1.98;1.88;;;;;;;3.34;100.00;100150.84;4936239;29;20019;-80
2021/12/09 20:41:10;;;;;;;2.42;2.33;;;;;;;3.37;100.00;100139.44;4935124;29;20024;-80
2021/12/09 20:43:36;;;;;;;2.00;1.90;;;;;;;3.31;100.00;100135.19;4936071;29;20119;-80
2021/12/09 20:46:01;;;;;;;2.00;1.90;;;;;;;3.36;100.00;100145.59;4935115;29;20362;-80
2021/12/09 20:48:27;;;;;;;1.88;1.77;;;;;;;3.32;100.00;100131.69;4928259;29;20103;-80
2021/12/09 20:51:07;;;;;;;2.20;2.10;;;;;;;3.26;100.00;100129.22;4916517;29;20028;-80
2021/12/09 20:53:38;;;;;;;2.63;2.53;;;;;;;3.31;100.00;100118.59;4920737;29;20024;-80
2021/12/09 20:56:04;;;;;;;3.03;2.83;;;;;;;3.26;100.00;100110.84;4926872;29;20043;-80
2021/12/09 20:58:39;;;;;;;2.38;2.20;;;;;;;3.27;100.00;100106.44;4924486;29;20038;-80
2021/12/09 21:01:06;;;;;;;2.47;2.28;;;;;;;3.30;100.00;100101.97;4923158;29;20032;-80
2021/12/09 21:03:32;;;;;;;2.28;2.17;;;;;;;3.21;100.00;100091.72;4924010;29;20032;-80
2021/12/09 21:05:58;;;;;;;4.22;3.97;;;;;;;3.15;100.00;100095.34;4916126;29;20020;-80
2021/12/09 21:08:25;;;;;;;3.28;3.08;;;;;;;3.23;100.00;100096.91;4920673;29;20016;-81
2021/12/09 21:10:53;;;;;;;2.03;1.92;;;;;;;3.17;100.00;100094.47;4918182;29;20036;-80
2021/12/09 21:13:19;;;;;;;2.10;2.00;;;;;;;3.07;100.00;100092.03;4918291;29;20020;-80
2021/12/09 21:15:50;;;;;;;2.25;2.15;;;;;;;3.02;100.00;100088.69;4916209;29;20106;-80
2021/12/09 21:18:16;;;;;;;1.98;1.88;;;;;;;3.01;100.00;100093.94;4919009;29;20020;-80
2021/12/09 21:20:43;;;;;;;2.25;2.15;;;;;;;3.05;100.00;100083.38;4920884;29;20468;-80
2021/12/09 21:23:11;;;;;;;2.60;2.40;;;;;;;3.01;100.00;100086.94;4925118;29;20500;-81
2021/12/09 21:25:49;;;;;;;3.28;2.83;;;;;;;3.08;100.00;100079.78;4923156;29;20075;-80
2021/12/09 21:28:19;;;;;;;1.95;1.85;;;;;;;3.01;100.00;100073.81;4925728;29;20103;-81
2021/12/09 21:30:46;;;;;;;2.70;2.55;;;;;;;3.07;100.00;100083.31;4914848;29;20046;-81
2021/12/09 21:33:12;;;;;;;2.45;2.35;;;;;;;3.10;100.00;100081.47;4918239;29;20060;-81
2021/12/09 21:35:38;;;;;;;3.83;3.53;;;;;;;3.10;100.00;100073.59;4918418;29;20043;-80
2021/12/09 21:38:12;;;;;;;2.47;2.28;;;;;;;3.08;100.00;100067.53;4917443;29;20028;-81
2021/12/09 21:40:40;;;;;;;2.38;2.28;;;;;;;3.02;100.00;100057.22;4920232;29;20062;-81
2021/12/09 21:43:14;;;;;;;2.10;2.00;;;;;;;2.93;100.00;100062.66;4920497;29;20039;-81
2021/12/09 21:45:40;;;;;;;3.60;3.40;;;;;;;2.97;100.00;100060.84;4917768;29;20024;-80
2021/12/09 21:48:05;;;;;;;2.47;2.38;;;;;;;2.89;100.00;100055.78;4915353;29;20032;-80
2021/12/09 21:50:43;;;;;;;2.15;2.05;;;;;;;2.90;100.00;100052.25;4919006;29;20032;-79
2021/12/09 21:53:09;;;;;;;2.10;2.00;;;;;;;2.81;100.00;100052.47;4920589;29;20020;-79
2021/12/09 21:55:34;;;;;;;1.90;1.80;;;;;;;2.76;100.00;100040.34;4922315;29;20110;-80
2021/12/09 21:58:00;;;;;;;3.50;3.28;;;;;;;2.72;100.00;100039.59;4920908;29;20440;-81
2021/12/09 22:00:27;;;;;;;2.08;1.98;;;;;;;2.69;100.00;100034.44;4923463;29;20087;-81
2021/12/09 22:03:10;;;;;;;1.70;1.60;;;;;;;2.65;100.00;100021.41;4921764;29;20661;-81
2021/12/09 22:05:40;;;;;;;2.72;2.53;;;;;;;2.54;100.00;100031.28;4924290;29;20167;-82
2021/12/09 22:08:06;;;;;;;2.55;2.45;;;;;;;2.52;100.00;100023.44;4925137;29;20047;-81
2021/12/09 22:10:31;;;;;;;3.25;3.05;;;;;;;2.48;100.00;100020.94;4930305;29;20472;-80
2021/12/09 22:13:01;;;;;;;2.45;2.35;;;;;;;2.41;100.00;100012.34;4931712;29;20020;-81
2021/12/09 22:15:27;;;;;;;2.15;2.05;;;;;;;2.37;100.00;100018.56;4930036;29;20020;-79
2021/12/09 22:18:13;;;;;;;2.30;2.20;;;;;;;2.34;100.00;100016.03;4925103;29;20499;-79
2021/12/09 22:20:39;;;;;;;2.53;2.42;;;;;;;2.37;100.00;100020.31;4927355;29;20028;-79
2021/12/09 22:23:04;;;;;;;2.70;2.60;;;;;;;2.32;100.00;100009.06;4930045;29;20024;-79
2021/12/09 22:25:30;;;;;;;2.30;2.20;;;;;;;2.17;100.00;99999.84;4929587;29;20110;-80
2021/12/09 22:27:56;;;;;;;3.67;3.47;;;;;;;2.14;100.00;99999.03;4930729;29;20024;-79
2021/12/09 22:30:27;;;;;;;3.00;2.80;;;;;;;2.08;100.00;99993.94;4927463;29;20112;-80
2021/12/09 22:32:54;;;;;;;2.33;2.22;;;;;;;2.06;100.00;99982.63;4929873;29;20028;-80
2021/12/09 22:35:32;;;;;;;2.17;2.08;;;;;;;2.13;100.00;99974.59;4925827;29;20110;-79
2021/12/09 22:37:58;;;;;;;2.30;2.20;;;;;;;2.19;100.00;99968.38;4931598;29;20022;-79
2021/12/09 22:40:23;;;;;;;2.72;2.53;;;;;;;2.21;100.00;99964.81;4931481;29;20436;-80
2021/12/09 22:42:54;;;;;;;2.55;2.45;;;;;;;2.13;100.00;99956.25;4935296;29;20505;-79
2021/12/09 22:45:21;;;;;;;2.60;2.50;;;;;;;2.15;100.00;99949.22;4932086;29;20024;-79
2021/12/09 22:47:46;;;;;;;2.28;2.17;;;;;;;2.09;100.00;99949.38;4924794;29;20051;-80
2021/12/09 22:50:16;;;;;;;2.55;2.40;;;;;;;2.11;100.00;99937.09;4928149;29;20524;-79
2021/12/09 22:52:42;;;;;;;2.30;2.20;;;;;;;2.08;100.00;99942.41;4931417;29;20035;-79
2021/12/09 22:55:09;;;;;;;2.28;2.17;;;;;;;2.09;100.00;99938.03;4925025;29;20061;-80
2021/12/09 22:57:53;;;;;;;2.63;2.53;;;;;;;2.07;100.00;99938.06;4927594;29;20024;-79
2021/12/09 23:00:38;;;;;;;2.20;2.10;;;;;;;2.05;100.00;99939.00;4921000;29;20028;-80
2021/12/09 23:03:12;;;;;;;2.75;2.63;;;;;;;2.12;100.00;99936.22;4915865;29;20059;-79
2021/12/09 23:05:39;;;;;;;3.03;2.83;;;;;;;2.14;100.00;99921.31;4924784;29;20032;-80
2021/12/09 23:08:07;;;;;;;2.35;2.25;;;;;;;2.18;100.00;99915.09;4928738;29;20110;-80
2021/12/09 23:10:33;;;;;;;2.35;2.25;;;;;;;2.15;100.00;99916.94;4924412;29;20036;-79
2021/12/09 23:13:18;;;;;;;2.45;2.35;;;;;;;2.22;100.00;99911.50;4931439;29;20024;-80
2021/12/09 23:15:47;;;;;;;3.00;2.80;;;;;;;2.15;100.00;99907.31;4923247;29;20048;-79
2021/12/09 23:18:14;;;;;;;2.60;2.50;;;;;;;2.20;100.00;99900.22;4937535;29;20055;-79
2021/12/09 23:20:41;;;;;;;2.30;2.20;;;;;;;2.18;100.00;99888.91;4937895;29;20295;-79
2021/12/09 23:23:10;;;;;;;2.13;2.03;;;;;;;2.19;100.00;99900.25;4930795;29;20087;-80
2021/12/09 23:25:50;;;;;;;2.40;2.30;;;;;;;2.17;100.00;99887.19;4919368;29;20020;-80
2021/12/09 23:28:20;;;;;;;2.50;2.40;;;;;;;2.21;100.00;99885.34;4928605;29;20663;-80
2021/12/09 23:30:47;;;;;;;2.30;2.20;;;;;;;2.19;100.00;99867.03;4937767;29;20028;-79
2021/12/09 23:33:23;;;;;;;2.85;2.65;;;;;;;2.20;100.00;99857.44;4938264;29;20083;-80
2021/12/09 23:35:51;;;;;;;3.60;3.30;;;;;;;2.19;100.00;99859.19;4937134;29;20115;-80
2021/12/09 23:38:20;;;;;;;2.42;2.33;;;;;;;2.21;100.00;99854.78;4935871;29;20039;-80
2021/12/09 23:40:46;;;;;;;2.47;2.38;;;;;;;2.23;100.00;99850.38;4937805;29;20111;-80
2021/12/09 23:43:18;;;;;;;2.92;2.72;;;;;;;2.25;100.00;99845.09;4937504;29;20061;-80
2021/12/09 23:45:46;;;;;;;2.92;2.75;;;;;;;2.23;100.00;99832.03;4937564;29;20028;-78
2021/12/09 23:48:12;;;;;;;3.28;2.97;;;;;;;2.23;100.00;99831.16;4937956;29;20141;-79
2021/12/09 23:50:39;;;;;;;2.95;2.75;;;;;;;2.25;100.00;99821.53;4936968;29;20027;-79
2021/12/09 23:53:06;;;;;;;3.53;3.33;;;;;;;2.27;100.00;99810.09;4937784;29;20043;-79
2021/12/09 23:55:32;;;;;;;2.72;2.63;;;;;;;2.31;100.00;99801.28;4948486;29;20074;-79
2021/12/09 23:57:58;;;;;;;5.63;2.90;;;;;;;2.28;100.00;99793.50;4956038;29;20047;-80
